createdAt,value
2019-05-21T00:00:13.367Z,32.60
2019-05-21T00:02:42.770Z,27.70
2019-05-21T00:05:12.582Z,25.20
2019-05-21T00:07:41.967Z,26.33
2019-05-21T00:10:12.107Z,26.40
2019-05-21T00:12:41.509Z,22.07
2019-05-21T00:15:11.389Z,18.30
2019-05-21T00:17:40.716Z,27.10
2019-05-21T00:20:10.637Z,23.83
2019-05-21T00:22:40.059Z,22.47
2019-05-21T00:25:10.418Z,20.53
2019-05-21T00:27:39.870Z,23.73
2019-05-21T00:31:04.088Z,22.97
2019-05-21T00:34:41.786Z,23.97
2019-05-21T00:37:54.233Z,21.93
2019-05-21T00:41:18.350Z,29.50
2019-05-21T00:43:55.023Z,25.23
2019-05-21T00:46:24.417Z,21.30
2019-05-21T00:48:54.367Z,24.87
2019-05-21T00:51:23.762Z,24.10
2019-05-21T00:53:53.146Z,23.33
2019-05-21T00:56:22.552Z,26.37
2019-05-21T00:58:51.964Z,23.93
2019-05-21T01:01:21.352Z,28.43
2019-05-21T01:03:50.730Z,26.07
2019-05-21T01:06:20.204Z,31.20
2019-05-21T01:08:49.672Z,27.33
2019-05-21T01:11:19.062Z,27.37
2019-05-21T01:13:48.465Z,29.27
2019-05-21T01:16:17.849Z,33.83
2019-05-21T01:18:47.702Z,26.83
2019-05-21T01:21:17.234Z,26.37
2019-05-21T01:23:46.614Z,26.00
2019-05-21T01:26:16.042Z,24.97
2019-05-21T01:28:45.424Z,33.13
2019-05-21T01:31:14.815Z,29.17
2019-05-21T01:33:44.211Z,29.97
2019-05-21T01:36:13.652Z,30.83
2019-05-21T01:38:43.055Z,32.13
2019-05-21T01:41:12.444Z,40.40
2019-05-21T01:43:41.973Z,34.43
2019-05-21T01:46:11.353Z,38.53
2019-05-21T01:48:40.735Z,41.53
2019-05-21T01:51:10.858Z,43.37
2019-05-21T01:53:41.433Z,42.30
2019-05-21T01:56:10.839Z,36.27
2019-05-21T01:58:40.289Z,46.33
2019-05-21T02:01:09.676Z,38.57
2019-05-21T02:03:39.062Z,41.20
2019-05-21T02:06:08.612Z,44.73
2019-05-21T02:08:38.020Z,40.40
2019-05-21T02:11:07.471Z,31.00
2019-05-21T02:13:36.870Z,38.13
2019-05-21T02:16:06.323Z,33.70
2019-05-21T02:18:35.704Z,30.00
2019-05-21T02:21:05.270Z,24.33
2019-05-21T02:23:34.655Z,29.37
2019-05-21T02:26:04.516Z,32.10
2019-05-21T02:28:33.897Z,35.13
2019-05-21T02:31:03.293Z,25.00
2019-05-21T02:33:32.688Z,27.93
2019-05-21T02:36:02.161Z,21.03
2019-05-21T02:38:31.545Z,23.37
2019-05-21T02:41:00.998Z,28.50
2019-05-21T02:43:30.452Z,25.07
2019-05-21T02:45:59.903Z,24.73
2019-05-21T02:48:29.311Z,21.63
2019-05-21T02:50:58.715Z,27.97
2019-05-21T02:53:28.085Z,26.33
2019-05-21T02:55:57.469Z,29.83
2019-05-21T02:58:26.851Z,25.83
2019-05-21T03:00:57.874Z,27.70
2019-05-21T03:03:31.987Z,29.17
2019-05-21T03:06:13.088Z,29.37
2019-05-21T03:08:32.569Z,31.13
2019-05-21T03:11:02.019Z,31.33
2019-05-21T03:13:31.397Z,26.63
2019-05-21T03:16:00.783Z,26.23
2019-05-21T03:18:30.164Z,31.37
2019-05-21T03:20:59.549Z,29.33
2019-05-21T03:23:28.929Z,26.30
2019-05-21T03:25:58.328Z,28.63
2019-05-21T03:28:27.709Z,27.73
2019-05-21T03:30:57.094Z,27.47
2019-05-21T03:33:26.475Z,27.50
2019-05-21T03:35:55.894Z,27.93
2019-05-21T03:38:25.269Z,32.67
2019-05-21T03:40:54.660Z,23.17
2019-05-21T03:43:24.437Z,25.67
2019-05-21T03:45:53.850Z,21.70
2019-05-21T03:48:23.232Z,29.20
2019-05-21T03:50:52.609Z,33.30
2019-05-21T03:53:22.092Z,27.03
2019-05-21T03:55:51.555Z,31.03
2019-05-21T03:58:20.943Z,31.30
2019-05-21T04:00:51.974Z,32.20
2019-05-21T04:03:21.286Z,33.53
2019-05-21T04:05:50.658Z,32.93
2019-05-21T04:08:20.804Z,31.23
2019-05-21T04:10:51.841Z,22.20
2019-05-21T04:13:21.141Z,25.03
2019-05-21T04:15:52.164Z,25.03
2019-05-21T04:18:29.628Z,26.53
2019-05-21T04:20:59.012Z,23.63
2019-05-21T04:23:28.396Z,24.77
2019-05-21T04:25:57.785Z,28.63
2019-05-21T04:28:27.163Z,25.13
2019-05-21T04:30:56.552Z,26.17
2019-05-21T04:33:25.935Z,25.63
2019-05-21T04:35:55.535Z,27.57
2019-05-21T04:38:24.927Z,28.90
2019-05-21T04:40:54.308Z,23.87
2019-05-21T04:43:23.757Z,21.67
2019-05-21T04:45:53.134Z,22.77
2019-05-21T04:48:22.520Z,22.17
2019-05-21T04:50:51.899Z,22.23
2019-05-21T04:53:21.285Z,22.53
2019-05-21T04:55:50.686Z,21.13
2019-05-21T04:58:20.065Z,25.00
2019-05-21T05:00:49.432Z,23.37
2019-05-21T05:03:18.819Z,24.40
2019-05-21T05:05:48.196Z,21.53
2019-05-21T05:08:17.582Z,23.57
2019-05-21T05:10:49.257Z,20.60
2019-05-21T05:13:18.072Z,21.53
2019-05-21T05:15:47.461Z,23.43
2019-05-21T05:18:16.846Z,22.83
2019-05-21T05:20:46.231Z,26.07
2019-05-21T05:23:15.610Z,29.13
2019-05-21T05:25:44.998Z,21.87
2019-05-21T05:28:14.385Z,22.10
2019-05-21T05:30:43.950Z,22.87
2019-05-21T05:33:13.330Z,19.80
2019-05-21T05:35:42.867Z,20.63
2019-05-21T05:38:12.247Z,21.83
2019-05-21T05:40:41.631Z,23.57
2019-05-21T05:43:11.013Z,23.43
2019-05-21T05:45:40.450Z,21.43
2019-05-21T05:48:09.838Z,19.90
2019-05-21T05:50:49.867Z,19.87
2019-05-21T05:53:19.230Z,22.63
2019-05-21T05:55:48.605Z,23.07
2019-05-21T05:58:18.115Z,23.90
2019-05-21T06:00:47.496Z,24.90
2019-05-21T06:03:16.879Z,20.23
2019-05-21T06:05:46.284Z,21.37
2019-05-21T06:08:15.686Z,24.87
2019-05-21T06:10:45.081Z,25.93
2019-05-21T06:13:14.502Z,19.70
2019-05-21T06:15:43.888Z,20.57
2019-05-21T06:18:13.274Z,19.77
2019-05-21T06:20:42.672Z,21.97
2019-05-21T06:23:12.039Z,20.93
2019-05-21T06:25:41.423Z,20.73
2019-05-21T06:28:10.901Z,19.93
2019-05-21T06:30:40.267Z,19.90
2019-05-21T06:33:09.653Z,23.10
2019-05-21T06:35:39.036Z,19.87
2019-05-21T06:38:17.088Z,21.60
2019-05-21T06:40:39.527Z,25.67
2019-05-21T06:43:09.727Z,24.77
2019-05-21T06:45:39.279Z,21.87
2019-05-21T06:48:08.733Z,23.60
2019-05-21T06:50:38.303Z,24.20
2019-05-21T06:53:07.680Z,20.50
2019-05-21T06:55:37.057Z,22.17
2019-05-21T06:58:06.453Z,19.03
2019-05-21T07:00:35.840Z,21.33
2019-05-21T07:03:05.404Z,22.90
2019-05-21T07:05:35.133Z,19.23
2019-05-21T07:08:04.793Z,20.07
2019-05-21T07:10:34.173Z,21.17
2019-05-21T07:13:03.554Z,17.30
2019-05-21T07:15:32.949Z,19.43
2019-05-21T07:18:02.324Z,18.30
2019-05-21T07:20:31.703Z,16.93
2019-05-21T07:23:01.248Z,20.03
2019-05-21T07:25:30.749Z,16.47
2019-05-21T07:28:00.137Z,18.10
2019-05-21T07:30:29.513Z,14.97
2019-05-21T07:32:59.051Z,14.37
2019-05-21T07:35:28.387Z,14.00
2019-05-21T07:37:57.818Z,12.63
2019-05-21T07:40:27.140Z,14.27
2019-05-21T07:42:56.517Z,15.77
2019-05-21T07:45:25.900Z,13.10
2019-05-21T07:47:55.281Z,14.10
2019-05-21T07:50:24.669Z,13.83
2019-05-21T07:52:54.048Z,13.47
2019-05-21T07:55:23.442Z,11.07
2019-05-21T07:57:52.830Z,14.60
2019-05-21T08:00:22.918Z,12.03
2019-05-21T08:02:52.293Z,13.53
2019-05-21T08:05:21.676Z,14.53
2019-05-21T08:07:51.067Z,16.60
2019-05-21T08:10:20.463Z,17.10
2019-05-21T08:12:49.830Z,14.80
2019-05-21T08:15:19.210Z,15.57
2019-05-21T08:17:48.587Z,16.03
2019-05-21T08:20:19.180Z,16.17
2019-05-21T08:22:48.731Z,15.57
2019-05-21T08:25:18.116Z,18.03
2019-05-21T08:27:47.506Z,16.70
2019-05-21T08:30:17.508Z,14.47
2019-05-21T08:32:46.866Z,18.13
2019-05-21T08:35:16.326Z,16.27
2019-05-21T08:37:45.765Z,16.00
2019-05-21T08:40:15.780Z,18.07
2019-05-21T08:42:45.165Z,14.43
2019-05-21T08:45:15.463Z,19.33
2019-05-21T08:47:44.825Z,17.23
2019-05-21T08:50:14.813Z,15.27
2019-05-21T08:52:44.207Z,19.20
2019-05-21T08:55:13.690Z,15.13
2019-05-21T08:57:43.091Z,15.47
2019-05-21T09:00:16.427Z,14.33
2019-05-21T09:02:45.870Z,15.43
2019-05-21T09:05:15.592Z,15.60
2019-05-21T09:07:45.101Z,15.27
2019-05-21T09:10:15.207Z,15.13
2019-05-21T09:12:45.932Z,18.40
2019-05-21T09:15:17.323Z,17.37
2019-05-21T09:17:46.778Z,18.23
2019-05-21T09:20:18.406Z,18.13
2019-05-21T09:22:47.793Z,22.47
2019-05-21T09:25:17.686Z,16.87
2019-05-21T09:27:47.075Z,13.77
2019-05-21T09:30:19.764Z,15.40
2019-05-21T09:32:49.118Z,13.43
2019-05-21T09:35:18.669Z,15.37
2019-05-21T09:37:48.111Z,12.80
2019-05-21T09:40:19.782Z,13.60
2019-05-21T09:42:49.169Z,12.77
2019-05-21T09:45:18.880Z,9.63
2019-05-21T09:47:48.284Z,11.23
2019-05-21T09:50:19.050Z,10.73
2019-05-21T09:52:48.665Z,10.33
2019-05-21T09:55:18.448Z,9.67
2019-05-21T09:57:55.608Z,11.60
2019-05-21T10:00:33.808Z,8.60
2019-05-21T10:03:11.672Z,9.90
2019-05-21T10:05:41.048Z,10.07
2019-05-21T10:08:10.698Z,10.73
2019-05-21T10:10:40.253Z,8.97
2019-05-21T10:13:09.638Z,13.93
2019-05-21T10:15:39.051Z,14.03
2019-05-21T10:18:08.418Z,14.20
2019-05-21T10:20:38.768Z,12.03
2019-05-21T10:23:08.154Z,18.27
2019-05-21T10:25:37.551Z,16.70
2019-05-21T10:28:06.931Z,11.90
2019-05-21T10:30:36.482Z,12.33
2019-05-21T10:33:05.862Z,13.40
2019-05-21T10:35:35.241Z,12.83
2019-05-21T10:38:04.818Z,12.00
2019-05-21T10:40:34.217Z,10.83
2019-05-21T10:43:03.591Z,12.77
2019-05-21T10:45:32.965Z,10.17
2019-05-21T10:48:02.343Z,10.50
2019-05-21T10:50:31.730Z,11.10
2019-05-21T10:53:01.114Z,9.73
2019-05-21T10:55:30.487Z,11.60
2019-05-21T10:58:00.137Z,16.83
2019-05-21T11:00:30.288Z,9.63
2019-05-21T11:03:01.317Z,13.80
2019-05-21T11:05:32.339Z,10.00
2019-05-21T11:08:22.964Z,11.97
2019-05-21T11:10:32.821Z,13.23
2019-05-21T11:13:02.276Z,18.03
2019-05-21T11:15:31.739Z,8.80
2019-05-21T11:18:10.765Z,11.13
2019-05-21T11:20:32.218Z,15.57
2019-05-21T11:23:01.600Z,11.97
2019-05-21T11:25:31.002Z,10.00
2019-05-21T11:28:00.360Z,9.53
2019-05-21T11:30:29.798Z,9.37
2019-05-21T11:32:59.181Z,8.57
2019-05-21T11:35:28.557Z,9.07
2019-05-21T11:38:00.581Z,9.37
2019-05-21T11:40:30.665Z,10.53
2019-05-21T11:43:00.062Z,11.87
2019-05-21T11:45:32.796Z,10.73
2019-05-21T11:48:00.548Z,10.87
2019-05-21T11:50:29.928Z,11.73
2019-05-21T11:52:59.308Z,10.80
2019-05-21T11:55:28.686Z,12.53
2019-05-21T11:57:58.095Z,10.27
2019-05-21T12:00:28.928Z,8.67
2019-05-21T12:02:58.359Z,13.03
2019-05-21T12:05:27.725Z,8.87
2019-05-21T12:07:57.076Z,9.57
2019-05-21T12:10:26.448Z,11.10
2019-05-21T12:12:55.837Z,10.30
2019-05-21T12:15:25.213Z,9.80
2019-05-21T12:17:54.604Z,10.63
2019-05-21T12:20:36.048Z,10.40
2019-05-21T12:22:55.580Z,9.20
2019-05-21T12:25:24.957Z,9.70
2019-05-21T12:27:54.343Z,9.23
2019-05-21T12:30:24.852Z,8.43
2019-05-21T12:32:54.491Z,14.27
2019-05-21T12:35:23.873Z,18.10
2019-05-21T12:37:53.253Z,17.43
2019-05-21T12:40:23.040Z,13.07
2019-05-21T12:42:52.422Z,12.80
2019-05-21T12:45:21.811Z,15.27
2019-05-21T12:47:51.240Z,14.77
2019-05-21T12:50:21.018Z,10.47
2019-05-21T12:52:50.401Z,11.97
2019-05-21T12:55:19.766Z,11.93
2019-05-21T12:57:49.151Z,16.17
2019-05-21T13:00:19.646Z,19.73
2019-05-21T13:02:49.030Z,15.03
2019-05-21T13:05:18.483Z,19.47
2019-05-21T13:07:47.856Z,17.43
2019-05-21T13:10:17.483Z,14.07
2019-05-21T13:12:46.930Z,21.87
2019-05-21T13:15:16.622Z,15.93
2019-05-21T13:17:45.998Z,17.83
2019-05-21T13:20:17.163Z,20.00
2019-05-21T13:22:46.551Z,17.63
2019-05-21T13:25:16.004Z,24.60
2019-05-21T13:27:45.390Z,23.67
2019-05-21T13:30:15.279Z,20.87
2019-05-21T13:32:44.664Z,19.23
2019-05-21T13:35:14.784Z,19.30
2019-05-21T13:37:44.163Z,18.00
2019-05-21T13:40:15.717Z,16.03
2019-05-21T13:42:45.093Z,15.77
2019-05-21T13:45:15.553Z,14.23
2019-05-21T13:47:44.933Z,16.53
2019-05-21T13:50:15.022Z,14.97
2019-05-21T13:52:44.418Z,14.33
2019-05-21T13:55:14.335Z,11.07
2019-05-21T13:57:43.723Z,15.13
2019-05-21T14:00:18.485Z,16.17
2019-05-21T14:02:48.033Z,11.87
2019-05-21T14:05:17.952Z,14.47
2019-05-21T14:07:47.328Z,12.83
2019-05-21T14:10:20.694Z,15.30
2019-05-21T14:12:48.317Z,19.67
2019-05-21T14:15:18.066Z,17.27
2019-05-21T14:17:47.445Z,14.47
2019-05-21T14:20:17.337Z,17.87
2019-05-21T14:22:46.715Z,21.13
2019-05-21T14:25:16.165Z,20.27
2019-05-21T14:27:45.541Z,15.60
2019-05-21T14:30:15.730Z,17.00
2019-05-21T14:32:45.268Z,13.57
2019-05-21T14:35:14.856Z,19.30
2019-05-21T14:37:44.231Z,17.10
2019-05-21T14:40:30.375Z,16.37
2019-05-21T14:42:59.303Z,20.27
2019-05-21T14:45:17.513Z,15.53
2019-05-21T14:47:46.887Z,19.40
2019-05-21T14:50:17.881Z,17.43
2019-05-21T14:52:51.958Z,20.13
2019-05-21T14:55:18.805Z,20.03
2019-05-21T14:57:48.284Z,24.57
2019-05-21T15:00:32.683Z,21.83
2019-05-21T15:03:02.076Z,22.63
2019-05-21T15:05:31.899Z,15.37
2019-05-21T15:08:01.277Z,22.03
2019-05-21T15:10:46.838Z,14.83
2019-05-21T15:13:05.668Z,17.67
2019-05-21T15:15:33.486Z,14.43
2019-05-21T15:18:02.980Z,19.57
2019-05-21T15:20:39.730Z,16.43
2019-05-21T15:23:09.125Z,19.20
2019-05-21T15:25:38.495Z,20.67
2019-05-21T15:28:07.957Z,20.23
2019-05-21T15:30:37.411Z,21.73
2019-05-21T15:33:07.158Z,23.17
2019-05-21T15:35:36.645Z,23.60
2019-05-21T15:38:06.101Z,23.67
2019-05-21T15:40:35.488Z,22.47
2019-05-21T15:43:05.190Z,26.90
2019-05-21T15:45:34.646Z,26.80
2019-05-21T15:48:04.098Z,27.50
2019-05-21T15:50:33.478Z,25.43
2019-05-21T15:53:03.164Z,21.70
2019-05-21T15:55:32.564Z,22.20
2019-05-21T15:58:01.945Z,21.00
2019-05-21T16:00:31.671Z,19.50
2019-05-21T16:03:01.055Z,26.37
2019-05-21T16:05:30.509Z,18.30
2019-05-21T16:07:59.910Z,23.80
2019-05-21T16:10:29.286Z,19.37
2019-05-21T16:12:58.670Z,20.10
2019-05-21T16:15:28.265Z,22.93
2019-05-21T16:17:57.951Z,27.23
2019-05-21T16:20:29.866Z,22.10
2019-05-21T16:22:59.249Z,25.00
2019-05-21T16:25:28.931Z,23.43
2019-05-21T16:27:58.316Z,24.60
2019-05-21T16:30:27.719Z,18.87
2019-05-21T16:32:57.732Z,19.83
2019-05-21T16:35:27.366Z,22.67
2019-05-21T16:37:56.737Z,23.10
2019-05-21T16:40:26.123Z,21.30
2019-05-21T16:42:55.505Z,18.27
2019-05-21T16:45:25.059Z,20.50
2019-05-21T16:47:55.007Z,22.47
2019-05-21T16:50:24.536Z,17.27
2019-05-21T16:52:54.176Z,19.37
2019-05-21T16:55:23.584Z,17.63
2019-05-21T16:57:56.116Z,20.43
2019-05-21T17:00:24.621Z,21.93
2019-05-21T17:02:53.998Z,23.80
2019-05-21T17:05:23.383Z,20.30
2019-05-21T17:07:52.762Z,23.23
2019-05-21T17:10:22.141Z,18.80
2019-05-21T17:12:51.521Z,17.70
2019-05-21T17:15:20.973Z,19.27
2019-05-21T17:17:50.353Z,22.70
2019-05-21T17:20:19.802Z,22.73
2019-05-21T17:22:49.182Z,20.93
2019-05-21T17:25:18.742Z,29.30
2019-05-21T17:27:48.121Z,21.53
2019-05-21T17:30:17.810Z,25.77
2019-05-21T17:32:47.191Z,24.90
2019-05-21T17:35:17.092Z,19.33
2019-05-21T17:37:47.242Z,24.83
2019-05-21T17:40:16.806Z,25.33
2019-05-21T17:42:46.447Z,24.83
2019-05-21T17:45:15.927Z,25.20
2019-05-21T17:47:45.280Z,21.63
2019-05-21T17:50:15.469Z,27.30
2019-05-21T17:52:44.857Z,29.03
2019-05-21T17:55:15.061Z,26.03
2019-05-21T17:57:45.230Z,33.23
2019-05-21T18:00:17.549Z,26.17
2019-05-21T18:02:47.475Z,29.90
2019-05-21T18:05:17.264Z,30.63
2019-05-21T18:07:46.645Z,23.73
2019-05-21T18:10:17.079Z,36.23
2019-05-21T18:12:46.621Z,29.50
2019-05-21T18:15:18.024Z,24.87
2019-05-21T18:17:47.974Z,28.07
2019-05-21T18:20:19.166Z,31.07
2019-05-21T18:22:50.257Z,25.77
2019-05-21T18:25:20.045Z,27.30
2019-05-21T18:27:49.590Z,31.20
2019-05-21T18:30:19.380Z,32.53
2019-05-21T18:32:49.801Z,29.27
2019-05-21T18:35:19.354Z,31.37
2019-05-21T18:37:49.109Z,33.63
2019-05-21T18:40:18.876Z,34.63
2019-05-21T18:42:48.410Z,30.43
2019-05-21T18:45:18.026Z,28.83
2019-05-21T18:47:47.411Z,28.57
2019-05-21T18:50:17.497Z,23.67
2019-05-21T18:52:49.658Z,29.40
2019-05-21T18:55:18.070Z,27.60
2019-05-21T18:57:47.481Z,25.30
2019-05-21T19:00:17.287Z,28.47
2019-05-21T19:02:47.180Z,26.17
2019-05-21T19:05:16.726Z,25.37
2019-05-21T19:07:46.127Z,27.10
2019-05-21T19:10:15.919Z,28.30
2019-05-21T19:12:45.300Z,21.97
2019-05-21T19:15:15.125Z,28.77
2019-05-21T19:17:44.578Z,26.57
2019-05-21T19:20:15.277Z,28.87
2019-05-21T19:22:45.109Z,24.33
2019-05-21T19:25:14.910Z,24.90
2019-05-21T19:27:44.468Z,23.13
2019-05-21T19:30:14.855Z,21.10
2019-05-21T19:32:44.240Z,21.73
2019-05-21T19:35:14.130Z,24.17
2019-05-21T19:37:43.522Z,24.93
2019-05-21T19:40:13.809Z,25.13
2019-05-21T19:42:54.395Z,23.50
2019-05-21T19:45:15.093Z,26.20
2019-05-21T19:47:44.457Z,23.23
2019-05-21T19:50:15.052Z,30.83
2019-05-21T19:52:44.508Z,30.93
2019-05-21T19:55:15.876Z,26.23
2019-05-21T19:57:45.321Z,32.67
2019-05-21T20:00:19.450Z,28.77
2019-05-21T20:02:49.004Z,30.17
2019-05-21T20:05:18.395Z,26.43
2019-05-21T20:07:47.773Z,33.97
2019-05-21T20:10:18.794Z,26.83
2019-05-21T20:12:51.004Z,34.53
2019-05-21T20:15:20.721Z,28.10
2019-05-21T20:18:06.200Z,28.53
2019-05-21T20:20:26.224Z,29.70
2019-05-21T20:22:57.249Z,37.70
2019-05-21T20:25:28.235Z,27.33
2019-05-21T20:27:58.153Z,35.37
2019-05-21T20:30:27.872Z,27.97
2019-05-21T20:32:57.598Z,29.67
2019-05-21T20:35:27.609Z,24.97
2019-05-21T20:37:57.340Z,26.63
2019-05-21T20:40:27.425Z,25.53
2019-05-21T20:42:57.034Z,28.00
2019-05-21T20:45:27.908Z,28.90
2019-05-21T20:47:58.595Z,29.33
2019-05-21T20:50:28.050Z,27.00
2019-05-21T20:52:57.780Z,27.00
2019-05-21T20:55:27.605Z,23.17
2019-05-21T20:57:57.050Z,30.57
2019-05-21T21:00:31.610Z,24.57
2019-05-21T21:03:01.679Z,21.50
2019-05-21T21:05:31.693Z,24.53
2019-05-21T21:08:01.161Z,21.47
2019-05-21T21:10:30.617Z,22.00
2019-05-21T21:13:00.941Z,16.80
2019-05-21T21:15:31.433Z,23.13
2019-05-21T21:18:01.586Z,22.23
2019-05-21T21:20:31.734Z,17.67
2019-05-21T21:23:01.552Z,19.53
2019-05-21T21:25:31.948Z,16.73
2019-05-21T21:28:01.638Z,19.53
2019-05-21T21:30:32.801Z,14.23
2019-05-21T21:33:03.990Z,17.77
2019-05-21T21:35:34.208Z,16.90
2019-05-21T21:38:05.064Z,16.70
2019-05-21T21:40:34.932Z,17.17
2019-05-21T21:43:07.817Z,16.73
2019-05-21T21:45:37.474Z,18.03
2019-05-21T21:48:07.896Z,16.47
2019-05-21T21:50:38.474Z,17.30
2019-05-21T21:53:08.225Z,17.13
2019-05-21T21:55:37.645Z,19.83
2019-05-21T21:58:07.031Z,15.40
2019-05-21T22:01:00.588Z,18.20
2019-05-21T22:03:34.454Z,17.30
2019-05-21T22:06:08.916Z,16.43
2019-05-21T22:08:38.827Z,15.30
2019-05-21T22:11:09.324Z,17.77
2019-05-21T22:13:39.021Z,18.83
2019-05-21T22:16:09.081Z,21.90
2019-05-21T22:18:38.635Z,21.33
2019-05-21T22:21:08.262Z,19.20
2019-05-21T22:23:37.986Z,21.43
2019-05-21T22:26:07.371Z,17.73
2019-05-21T22:28:36.822Z,16.50
2019-05-21T22:31:06.281Z,17.00
2019-05-21T22:33:36.155Z,16.27
2019-05-21T22:36:06.668Z,16.17
2019-05-21T22:38:36.046Z,17.37
2019-05-21T22:41:05.429Z,16.63
2019-05-21T22:43:35.138Z,14.60
2019-05-21T22:46:05.011Z,15.13
2019-05-21T22:48:34.462Z,14.17
2019-05-21T22:51:04.082Z,14.07
2019-05-21T22:53:33.549Z,12.70
2019-05-21T22:56:03.006Z,14.27
2019-05-21T22:58:32.452Z,12.27
2019-05-21T23:01:02.792Z,16.67
2019-05-21T23:03:32.173Z,13.40
2019-05-21T23:06:01.556Z,15.63
2019-05-21T23:08:31.111Z,11.53
2019-05-21T23:11:00.658Z,13.27
2019-05-21T23:13:30.044Z,12.77
2019-05-21T23:16:00.553Z,11.30
2019-05-21T23:18:29.938Z,12.83
2019-05-21T23:21:00.315Z,9.67
2019-05-21T23:23:31.219Z,12.43
2019-05-21T23:26:01.264Z,12.10
2019-05-21T23:28:30.891Z,11.17
2019-05-21T23:31:02.013Z,8.90
2019-05-21T23:33:32.322Z,9.63
2019-05-21T23:36:02.277Z,9.20
2019-05-21T23:38:32.380Z,8.10
2019-05-21T23:41:04.634Z,7.90
2019-05-21T23:43:35.063Z,8.73
2019-05-21T23:46:05.524Z,6.83
2019-05-21T23:48:35.934Z,8.23
2019-05-21T23:51:05.315Z,8.30
2019-05-21T23:53:34.878Z,7.90
2019-05-21T23:56:04.474Z,10.20
2019-05-21T23:58:34.292Z,7.67
